sensor_id;sensor_type;location;lat;lon;timestamp;pressure;altitude;pressure_sealevel;temperature;humidity
49541;BME280;35432;43.566;1.398;2023-04-06T00:00:13;100302.91;;;8.59;52.87
49541;BME280;35432;43.566;1.398;2023-04-06T00:02:39;100302.88;;;8.55;53.05
49541;BME280;35432;43.566;1.398;2023-04-06T00:05:05;100302.00;;;8.53;52.94
49541;BME280;35432;43.566;1.398;2023-04-06T00:07:31;100300.22;;;8.50;53.04
49541;BME280;35432;43.566;1.398;2023-04-06T00:09:58;100298.44;;;8.46;53.24
49541;BME280;35432;43.566;1.398;2023-04-06T00:12:24;100303.66;;;8.43;53.12
49541;BME280;35432;43.566;1.398;2023-04-06T00:14:49;100301.03;;;8.40;53.26
49541;BME280;35432;43.566;1.398;2023-04-06T00:17:15;100301.03;;;8.37;53.55
49541;BME280;35432;43.566;1.398;2023-04-06T00:19:41;100295.69;;;8.27;53.73
49541;BME280;35432;43.566;1.398;2023-04-06T00:22:06;100294.75;;;8.14;54.54
49541;BME280;35432;43.566;1.398;2023-04-06T00:24:31;100293.81;;;8.04;54.71
49541;BME280;35432;43.566;1.398;2023-04-06T00:26:57;100292.03;;;7.96;55.34
49541;BME280;35432;43.566;1.398;2023-04-06T00:29:22;100294.56;;;7.86;55.25
49541;BME280;35432;43.566;1.398;2023-04-06T00:31:48;100296.22;;;7.76;55.61
49541;BME280;35432;43.566;1.398;2023-04-06T00:34:13;100283.09;;;7.73;55.23
49541;BME280;35432;43.566;1.398;2023-04-06T00:36:41;100287.44;;;7.70;55.63
49541;BME280;35432;43.566;1.398;2023-04-06T00:39:06;100283.03;;;7.64;55.77
49541;BME280;35432;43.566;1.398;2023-04-06T00:41:31;100283.03;;;7.61;56.05
49541;BME280;35432;43.566;1.398;2023-04-06T00:43:57;100278.59;;;7.55;55.75
49541;BME280;35432;43.566;1.398;2023-04-06T00:46:23;100274.16;;;7.50;56.65
49541;BME280;35432;43.566;1.398;2023-04-06T00:48:48;100276.72;;;7.42;56.64
49541;BME280;35432;43.566;1.398;2023-04-06T00:51:14;100274.91;;;7.35;56.86
49541;BME280;35432;43.566;1.398;2023-04-06T00:53:39;100273.97;;;7.28;56.66
49541;BME280;35432;43.566;1.398;2023-04-06T00:56:05;100281.78;;;7.22;56.82
49541;BME280;35432;43.566;1.398;2023-04-06T00:58:31;100276.47;;;7.14;56.99
49541;BME280;35432;43.566;1.398;2023-04-06T01:00:57;100275.56;;;7.12;57.35
49541;BME280;35432;43.566;1.398;2023-04-06T01:03:23;100277.25;;;7.05;58.23
49541;BME280;35432;43.566;1.398;2023-04-06T01:05:48;100279.81;;;7.02;57.28
49541;BME280;35432;43.566;1.398;2023-04-06T01:08:14;100285.00;;;6.97;57.27
49541;BME280;35432;43.566;1.398;2023-04-06T01:10:39;100286.72;;;6.94;58.04
49541;BME280;35432;43.566;1.398;2023-04-06T01:13:05;100280.59;;;6.92;58.07
49541;BME280;35432;43.566;1.398;2023-04-06T01:15:32;100291.06;;;6.92;57.69
49541;BME280;35432;43.566;1.398;2023-04-06T01:17:58;100285.88;;;6.95;57.37
49541;BME280;35432;43.566;1.398;2023-04-06T01:20:24;100284.09;;;6.95;58.05
49541;BME280;35432;43.566;1.398;2023-04-06T01:22:49;100279.72;;;6.91;57.87
49541;BME280;35432;43.566;1.398;2023-04-06T01:25:15;100284.03;;;6.86;58.29
49541;BME280;35432;43.566;1.398;2023-04-06T01:27:40;100282.19;;;6.80;58.10
49541;BME280;35432;43.566;1.398;2023-04-06T01:30:06;100284.78;;;6.75;58.58
49541;BME280;35432;43.566;1.398;2023-04-06T01:32:32;100275.16;;;6.74;57.37
49541;BME280;35432;43.566;1.398;2023-04-06T01:34:57;100281.25;;;6.73;58.21
49541;BME280;35432;43.566;1.398;2023-04-06T01:37:23;100274.25;;;6.71;57.80
49541;BME280;35432;43.566;1.398;2023-04-06T01:39:48;100275.13;;;6.70;57.80
49541;BME280;35432;43.566;1.398;2023-04-06T01:42:13;100271.59;;;6.68;58.30
49541;BME280;35432;43.566;1.398;2023-04-06T01:44:39;100266.38;;;6.68;58.09
49541;BME280;35432;43.566;1.398;2023-04-06T01:47:04;100265.47;;;6.67;57.73
49541;BME280;35432;43.566;1.398;2023-04-06T01:49:30;100266.41;;;6.71;57.98
49541;BME280;35432;43.566;1.398;2023-04-06T01:51:55;100268.19;;;6.75;57.99
49541;BME280;35432;43.566;1.398;2023-04-06T01:54:20;100265.53;;;6.73;57.41
49541;BME280;35432;43.566;1.398;2023-04-06T01:56:46;100263.81;;;6.74;57.83
49541;BME280;35432;43.566;1.398;2023-04-06T01:59:12;100255.97;;;6.74;57.46
49541;BME280;35432;43.566;1.398;2023-04-06T02:01:37;100262.97;;;6.78;57.24
49541;BME280;35432;43.566;1.398;2023-04-06T02:04:03;100263.84;;;6.75;57.04
49541;BME280;35432;43.566;1.398;2023-04-06T02:06:28;100261.19;;;6.74;57.40
49541;BME280;35432;43.566;1.398;2023-04-06T02:08:53;100255.91;;;6.69;57.18
49541;BME280;35432;43.566;1.398;2023-04-06T02:11:19;100245.41;;;6.65;57.89
49541;BME280;35432;43.566;1.398;2023-04-06T02:13:44;100252.34;;;6.61;57.26
49541;BME280;35432;43.566;1.398;2023-04-06T02:16:10;100255.78;;;6.58;57.78
49541;BME280;35432;43.566;1.398;2023-04-06T02:18:36;100253.13;;;6.54;57.96
49541;BME280;35432;43.566;1.398;2023-04-06T02:21:01;100249.50;;;6.45;58.10
49541;BME280;35432;43.566;1.398;2023-04-06T02:23:27;100243.31;;;6.39;58.16
49541;BME280;35432;43.566;1.398;2023-04-06T02:25:52;100255.47;;;6.34;58.19
49541;BME280;35432;43.566;1.398;2023-04-06T02:28:18;100253.66;;;6.29;59.07
49541;BME280;35432;43.566;1.398;2023-04-06T02:30:43;100250.13;;;6.24;58.84
49541;BME280;35432;43.566;1.398;2023-04-06T02:33:08;100256.19;;;6.20;58.55
49541;BME280;35432;43.566;1.398;2023-04-06T02:35:34;100251.78;;;6.16;59.21
49541;BME280;35432;43.566;1.398;2023-04-06T02:37:59;100240.38;;;6.12;59.18
49541;BME280;35432;43.566;1.398;2023-04-06T02:40:25;100244.75;;;6.13;59.09
49541;BME280;35432;43.566;1.398;2023-04-06T02:42:50;100251.78;;;6.16;58.61
49541;BME280;35432;43.566;1.398;2023-04-06T02:45:16;100248.34;;;6.20;58.80
49541;BME280;35432;43.566;1.398;2023-04-06T02:47:41;100250.09;;;6.23;58.65
49541;BME280;35432;43.566;1.398;2023-04-06T02:50:07;100251.00;;;6.23;59.29
49541;BME280;35432;43.566;1.398;2023-04-06T02:52:32;100253.53;;;6.17;59.03
49541;BME280;35432;43.566;1.398;2023-04-06T02:54:58;100264.75;;;6.11;59.80
49541;BME280;35432;43.566;1.398;2023-04-06T02:57:23;100259.47;;;6.05;59.00
49541;BME280;35432;43.566;1.398;2023-04-06T02:59:49;100253.28;;;6.01;60.05
49541;BME280;35432;43.566;1.398;2023-04-06T03:02:14;100254.00;;;5.93;60.30
49541;BME280;35432;43.566;1.398;2023-04-06T03:04:40;100250.44;;;5.87;60.08
49541;BME280;35432;43.566;1.398;2023-04-06T03:07:05;100250.28;;;5.78;60.96
49541;BME280;35432;43.566;1.398;2023-04-06T03:09:31;100245.06;;;5.77;60.09
49541;BME280;35432;43.566;1.398;2023-04-06T03:11:56;100239.81;;;5.75;60.78
49541;BME280;35432;43.566;1.398;2023-04-06T03:14:22;100248.50;;;5.74;61.06
49541;BME280;35432;43.566;1.398;2023-04-06T03:16:48;100246.78;;;5.76;60.87
49541;BME280;35432;43.566;1.398;2023-04-06T03:19:14;100245.94;;;5.77;60.95
49541;BME280;35432;43.566;1.398;2023-04-06T03:21:40;100242.44;;;5.78;61.14
49541;BME280;35432;43.566;1.398;2023-04-06T03:24:06;100245.97;;;5.79;61.29
49541;BME280;35432;43.566;1.398;2023-04-06T03:26:32;100247.69;;;5.77;61.48
49541;BME280;35432;43.566;1.398;2023-04-06T03:28:57;100238.03;;;5.74;61.65
49541;BME280;35432;43.566;1.398;2023-04-06T03:31:23;100238.94;;;5.74;61.54
49541;BME280;35432;43.566;1.398;2023-04-06T03:33:48;100238.03;;;5.72;61.56
49541;BME280;35432;43.566;1.398;2023-04-06T03:36:13;100238.94;;;5.74;61.27
49541;BME280;35432;43.566;1.398;2023-04-06T03:38:39;100238.97;;;5.78;61.20
49541;BME280;35432;43.566;1.398;2023-04-06T03:41:05;100243.34;;;5.79;61.37
49541;BME280;35432;43.566;1.398;2023-04-06T03:43:30;100239.06;;;5.82;61.41
49541;BME280;35432;43.566;1.398;2023-04-06T03:45:55;100233.88;;;5.87;61.40
49541;BME280;35432;43.566;1.398;2023-04-06T03:48:21;100237.38;;;5.89;61.39
49541;BME280;35432;43.566;1.398;2023-04-06T03:50:46;100236.50;;;5.87;61.54
49541;BME280;35432;43.566;1.398;2023-04-06T03:53:12;100239.06;;;5.82;61.53
49541;BME280;35432;43.566;1.398;2023-04-06T03:55:37;100238.97;;;5.78;61.76
49541;BME280;35432;43.566;1.398;2023-04-06T03:58:03;100243.25;;;5.74;61.78
49541;BME280;35432;43.566;1.398;2023-04-06T04:00:28;100245.88;;;5.72;62.42
49541;BME280;35432;43.566;1.398;2023-04-06T04:02:53;100238.91;;;5.71;62.29
49541;BME280;35432;43.566;1.398;2023-04-06T04:05:19;100244.13;;;5.71;62.44
49541;BME280;35432;43.566;1.398;2023-04-06T04:07:44;100240.63;;;5.71;62.27
49541;BME280;35432;43.566;1.398;2023-04-06T04:10:10;100238.03;;;5.72;62.92
49541;BME280;35432;43.566;1.398;2023-04-06T04:12:36;100241.56;;;5.76;62.25
49541;BME280;35432;43.566;1.398;2023-04-06T04:15:01;100240.72;;;5.79;62.56
49541;BME280;35432;43.566;1.398;2023-04-06T04:17:28;100248.63;;;5.80;62.58
49541;BME280;35432;43.566;1.398;2023-04-06T04:19:53;100243.44;;;5.85;62.45
49541;BME280;35432;43.566;1.398;2023-04-06T04:22:18;100253.06;;;5.87;62.55
49541;BME280;35432;43.566;1.398;2023-04-06T04:24:44;100251.34;;;5.89;62.34
49541;BME280;35432;43.566;1.398;2023-04-06T04:27:10;100249.66;;;5.93;61.65
49541;BME280;35432;43.566;1.398;2023-04-06T04:29:35;100253.19;;;5.95;62.74
49541;BME280;35432;43.566;1.398;2023-04-06T04:32:00;100252.28;;;5.95;62.55
49541;BME280;35432;43.566;1.398;2023-04-06T04:34:26;100254.03;;;5.94;61.91
49541;BME280;35432;43.566;1.398;2023-04-06T04:36:54;100248.91;;;6.00;61.99
49541;BME280;35432;43.566;1.398;2023-04-06T04:39:20;100243.66;;;6.00;62.16
49541;BME280;35432;43.566;1.398;2023-04-06T04:41:45;100239.38;;;6.02;61.95
49541;BME280;35432;43.566;1.398;2023-04-06T04:44:11;100246.34;;;6.03;61.96
49541;BME280;35432;43.566;1.398;2023-04-06T04:46:36;100248.09;;;6.05;62.10
49541;BME280;35432;43.566;1.398;2023-04-06T04:49:02;100244.59;;;6.02;61.94
49541;BME280;35432;43.566;1.398;2023-04-06T04:51:27;100251.50;;;6.00;62.55
49541;BME280;35432;43.566;1.398;2023-04-06T04:53:53;100248.00;;;6.00;62.95
49541;BME280;35432;43.566;1.398;2023-04-06T04:56:18;100244.53;;;5.99;63.34
49541;BME280;35432;43.566;1.398;2023-04-06T04:58:43;100241.91;;;5.99;62.65
49541;BME280;35432;43.566;1.398;2023-04-06T05:01:09;100242.84;;;6.01;63.14
49541;BME280;35432;43.566;1.398;2023-04-06T05:03:36;100242.88;;;6.03;63.11
49541;BME280;35432;43.566;1.398;2023-04-06T05:06:04;100243.78;;;6.05;63.08
49541;BME280;35432;43.566;1.398;2023-04-06T05:08:29;100235.91;;;6.03;63.13
49541;BME280;35432;43.566;1.398;2023-04-06T05:10:55;100235.03;;;6.05;63.44
49541;BME280;35432;43.566;1.398;2023-04-06T05:13:20;100242.91;;;6.06;63.49
49541;BME280;35432;43.566;1.398;2023-04-06T05:15:46;100242.91;;;6.08;63.77
49541;BME280;35432;43.566;1.398;2023-04-06T05:18:11;100242.97;;;6.11;63.25
49541;BME280;35432;43.566;1.398;2023-04-06T05:20:38;100248.19;;;6.11;63.63
49541;BME280;35432;43.566;1.398;2023-04-06T05:23:03;100249.97;;;6.13;63.91
49541;BME280;35432;43.566;1.398;2023-04-06T05:25:29;100250.00;;;6.15;63.23
49541;BME280;35432;43.566;1.398;2023-04-06T05:27:55;100253.53;;;6.17;63.74
49541;BME280;35432;43.566;1.398;2023-04-06T05:30:21;100257.03;;;6.19;63.39
49541;BME280;35432;43.566;1.398;2023-04-06T05:32:46;100259.66;;;6.21;63.08
49541;BME280;35432;43.566;1.398;2023-04-06T05:35:12;100250.94;;;6.22;63.04
49541;BME280;35432;43.566;1.398;2023-04-06T05:37:38;100264.09;;;6.26;63.22
49541;BME280;35432;43.566;1.398;2023-04-06T05:40:05;100257.16;;;6.28;63.11
49541;BME280;35432;43.566;1.398;2023-04-06T05:42:42;100272.06;;;6.34;62.94
49541;BME280;35432;43.566;1.398;2023-04-06T05:45:09;100276.44;;;6.37;62.78
49541;BME280;35432;43.566;1.398;2023-04-06T05:47:42;100283.41;;;6.38;62.10
49541;BME280;35432;43.566;1.398;2023-04-06T05:50:09;100281.75;;;6.43;62.37
49541;BME280;35432;43.566;1.398;2023-04-06T05:52:35;100290.50;;;6.45;62.37
49541;BME280;35432;43.566;1.398;2023-04-06T05:55:00;100285.31;;;6.48;61.67
49541;BME280;35432;43.566;1.398;2023-04-06T05:57:25;100301.00;;;6.50;62.19
49541;BME280;35432;43.566;1.398;2023-04-06T05:59:51;100296.72;;;6.53;61.90
49541;BME280;35432;43.566;1.398;2023-04-06T06:02:20;100305.44;;;6.54;62.02
49541;BME280;35432;43.566;1.398;2023-04-06T06:04:45;100310.69;;;6.55;61.67
49541;BME280;35432;43.566;1.398;2023-04-06T06:07:11;100308.09;;;6.58;62.02
49541;BME280;35432;43.566;1.398;2023-04-06T06:09:36;100311.63;;;6.60;61.61
49541;BME280;35432;43.566;1.398;2023-04-06T06:12:01;100316.09;;;6.68;61.98
49541;BME280;35432;43.566;1.398;2023-04-06T06:14:27;100325.72;;;6.72;61.67
49541;BME280;35432;43.566;1.398;2023-04-06T06:16:54;100317.94;;;6.77;61.66
49541;BME280;35432;43.566;1.398;2023-04-06T06:19:19;100323.22;;;6.81;61.72
49541;BME280;35432;43.566;1.398;2023-04-06T06:21:46;100319.78;;;6.85;61.39
49541;BME280;35432;43.566;1.398;2023-04-06T06:24:11;100323.28;;;6.86;61.63
49541;BME280;35432;43.566;1.398;2023-04-06T06:26:37;100328.56;;;6.89;62.03
49541;BME280;35432;43.566;1.398;2023-04-06T06:29:04;100332.97;;;6.92;62.05
49541;BME280;35432;43.566;1.398;2023-04-06T06:31:30;100339.94;;;6.93;61.91
49541;BME280;35432;43.566;1.398;2023-04-06T06:33:56;100341.72;;;6.94;61.61
49541;BME280;35432;43.566;1.398;2023-04-06T06:36:21;100341.75;;;6.97;62.33
49541;BME280;35432;43.566;1.398;2023-04-06T06:38:47;100343.53;;;7.01;62.79
49541;BME280;35432;43.566;1.398;2023-04-06T06:41:12;100338.34;;;7.07;62.30
49541;BME280;35432;43.566;1.398;2023-04-06T06:43:38;100345.47;;;7.17;62.16
49541;BME280;35432;43.566;1.398;2023-04-06T06:46:04;100345.56;;;7.27;62.45
49541;BME280;35432;43.566;1.398;2023-04-06T06:48:30;100348.25;;;7.33;61.98
49541;BME280;35432;43.566;1.398;2023-04-06T06:50:56;100347.44;;;7.37;61.72
49541;BME280;35432;43.566;1.398;2023-04-06T06:53:22;100337.00;;;7.43;62.47
49541;BME280;35432;43.566;1.398;2023-04-06T06:55:47;100335.31;;;7.49;63.13
49541;BME280;35432;43.566;1.398;2023-04-06T06:58:19;100336.22;;;7.54;62.67
49541;BME280;35432;43.566;1.398;2023-04-06T07:00:45;100336.28;;;7.61;62.48
49541;BME280;35432;43.566;1.398;2023-04-06T07:03:11;100344.22;;;7.69;62.48
49541;BME280;35432;43.566;1.398;2023-04-06T07:05:36;100340.78;;;7.73;62.96
49541;BME280;35432;43.566;1.398;2023-04-06T07:08:02;100346.03;;;7.76;62.94
49541;BME280;35432;43.566;1.398;2023-04-06T07:10:27;100354.81;;;7.82;63.01
49541;BME280;35432;43.566;1.398;2023-04-06T07:12:53;100347.88;;;7.87;63.74
49541;BME280;35432;43.566;1.398;2023-04-06T07:15:18;100350.56;;;7.93;63.24
49541;BME280;35432;43.566;1.398;2023-04-06T07:17:43;100347.09;;;7.97;63.35
49541;BME280;35432;43.566;1.398;2023-04-06T07:20:12;100356.75;;;8.04;62.55
49541;BME280;35432;43.566;1.398;2023-04-06T07:22:39;100359.44;;;8.12;62.61
49541;BME280;35432;43.566;1.398;2023-04-06T07:25:05;100363.00;;;8.22;62.64
49541;BME280;35432;43.566;1.398;2023-04-06T07:27:31;100354.31;;;8.31;62.58
49541;BME280;35432;43.566;1.398;2023-04-06T07:29:56;100359.63;;;8.39;62.39
49541;BME280;35432;43.566;1.398;2023-04-06T07:32:22;100375.44;;;8.46;61.71
49541;BME280;35432;43.566;1.398;2023-04-06T07:34:47;100383.41;;;8.59;61.79
49541;BME280;35432;43.566;1.398;2023-04-06T07:37:12;100384.38;;;8.76;61.40
49541;BME280;35432;43.566;1.398;2023-04-06T07:39:38;100389.72;;;8.97;61.14
49541;BME280;35432;43.566;1.398;2023-04-06T07:42:03;100385.41;;;9.11;61.24
49541;BME280;35432;43.566;1.398;2023-04-06T07:44:29;100391.59;;;9.27;60.88
49541;BME280;35432;43.566;1.398;2023-04-06T07:46:55;100396.00;;;9.36;60.65
49541;BME280;35432;43.566;1.398;2023-04-06T07:49:20;100387.25;;;9.43;60.26
49541;BME280;35432;43.566;1.398;2023-04-06T07:51:46;100390.78;;;9.52;60.04
49541;BME280;35432;43.566;1.398;2023-04-06T07:54:11;100387.31;;;9.65;59.59
49541;BME280;35432;43.566;1.398;2023-04-06T07:56:36;100395.22;;;9.76;59.37
49541;BME280;35432;43.566;1.398;2023-04-06T07:59:02;100396.97;;;9.91;59.25
49541;BME280;35432;43.566;1.398;2023-04-06T08:01:28;100390.84;;;10.03;58.66
49541;BME280;35432;43.566;1.398;2023-04-06T08:03:55;100381.19;;;10.08;58.90
49541;BME280;35432;43.566;1.398;2023-04-06T08:06:21;100382.06;;;10.15;58.71
49541;BME280;35432;43.566;1.398;2023-04-06T08:08:46;100379.44;;;10.18;58.40
49541;BME280;35432;43.566;1.398;2023-04-06T08:11:12;100383.81;;;10.19;58.72
49541;BME280;35432;43.566;1.398;2023-04-06T08:13:37;100386.44;;;10.19;58.20
49541;BME280;35432;43.566;1.398;2023-04-06T08:16:03;100391.72;;;10.19;58.51
49541;BME280;35432;43.566;1.398;2023-04-06T08:18:28;100393.47;;;10.25;58.14
49541;BME280;35432;43.566;1.398;2023-04-06T08:20:55;100393.50;;;10.26;57.98
49541;BME280;35432;43.566;1.398;2023-04-06T08:23:21;100398.75;;;10.26;58.06
49541;BME280;35432;43.566;1.398;2023-04-06T08:25:46;100409.25;;;10.32;58.19
49541;BME280;35432;43.566;1.398;2023-04-06T08:28:12;100408.38;;;10.37;58.25
49541;BME280;35432;43.566;1.398;2023-04-06T08:30:42;100413.63;;;10.40;58.37
49541;BME280;35432;43.566;1.398;2023-04-06T08:33:08;100414.53;;;10.45;58.62
49541;BME280;35432;43.566;1.398;2023-04-06T08:35:33;100417.19;;;10.51;58.48
49541;BME280;35432;43.566;1.398;2023-04-06T08:37:59;100427.69;;;10.60;58.51
49541;BME280;35432;43.566;1.398;2023-04-06T08:40:24;100423.31;;;10.67;57.98
49541;BME280;35432;43.566;1.398;2023-04-06T08:42:54;100420.66;;;10.75;57.81
49541;BME280;35432;43.566;1.398;2023-04-06T08:45:20;100418.84;;;10.82;57.65
49541;BME280;35432;43.566;1.398;2023-04-06T08:47:48;100417.06;;;10.91;57.87
49541;BME280;35432;43.566;1.398;2023-04-06T08:50:14;100420.56;;;10.97;57.47
49541;BME280;35432;43.566;1.398;2023-04-06T08:52:40;100418.81;;;11.02;57.89
49541;BME280;35432;43.566;1.398;2023-04-06T08:55:07;100418.78;;;11.11;57.66
49541;BME280;35432;43.566;1.398;2023-04-06T08:57:36;100413.50;;;11.16;58.06
49541;BME280;35432;43.566;1.398;2023-04-06T09:00:02;100408.19;;;11.24;57.43
49541;BME280;35432;43.566;1.398;2023-04-06T09:02:27;100410.75;;;11.31;57.47
49541;BME280;35432;43.566;1.398;2023-04-06T09:04:54;100417.78;;;11.37;57.16
49541;BME280;35432;43.566;1.398;2023-04-06T09:07:20;100417.75;;;11.45;57.06
49541;BME280;35432;43.566;1.398;2023-04-06T09:09:46;100423.84;;;11.55;56.72
49541;BME280;35432;43.566;1.398;2023-04-06T09:12:24;100423.81;;;11.61;56.85
49541;BME280;35432;43.566;1.398;2023-04-06T09:14:50;100429.03;;;11.70;56.74
49541;BME280;35432;43.566;1.398;2023-04-06T09:17:22;100421.94;;;11.78;56.49
49541;BME280;35432;43.566;1.398;2023-04-06T09:19:48;100418.31;;;11.94;56.37
49541;BME280;35432;43.566;1.398;2023-04-06T09:22:13;100413.88;;;12.03;56.12
49541;BME280;35432;43.566;1.398;2023-04-06T09:24:41;100412.91;;;12.15;55.97
49541;BME280;35432;43.566;1.398;2023-04-06T09:27:06;100406.63;;;12.29;56.07
49541;BME280;35432;43.566;1.398;2023-04-06T09:29:32;100410.06;;;12.39;55.61
49541;BME280;35432;43.566;1.398;2023-04-06T09:32:07;100406.44;;;12.51;54.43
49541;BME280;35432;43.566;1.398;2023-04-06T09:34:42;100407.22;;;12.60;52.99
49541;BME280;35432;43.566;1.398;2023-04-06T09:37:17;100404.53;;;12.65;52.43
49541;BME280;35432;43.566;1.398;2023-04-06T09:39:44;100409.75;;;12.71;52.84
49541;BME280;35432;43.566;1.398;2023-04-06T09:42:22;100411.44;;;12.78;51.97
49541;BME280;35432;43.566;1.398;2023-04-06T09:44:48;100405.19;;;12.86;51.65
49541;BME280;35432;43.566;1.398;2023-04-06T09:47:14;100408.69;;;12.88;51.61
49541;BME280;35432;43.566;1.398;2023-04-06T09:49:40;100416.59;;;12.92;51.69
49541;BME280;35432;43.566;1.398;2023-04-06T09:52:08;100420.00;;;12.99;51.33
49541;BME280;35432;43.566;1.398;2023-04-06T09:54:37;100424.31;;;13.08;51.54
49541;BME280;35432;43.566;1.398;2023-04-06T09:57:25;100418.09;;;13.14;51.33
49541;BME280;35432;43.566;1.398;2023-04-06T10:00:04;100425.84;;;13.28;51.24
49541;BME280;35432;43.566;1.398;2023-04-06T10:05:07;100411.31;;;13.63;50.58
49541;BME280;35432;43.566;1.398;2023-04-06T10:07:35;100419.97;;;13.74;50.11
49541;BME280;35432;43.566;1.398;2023-04-06T10:10:02;100417.09;;;13.88;50.12
49541;BME280;35432;43.566;1.398;2023-04-06T10:12:28;100414.25;;;14.02;50.09
49541;BME280;35432;43.566;1.398;2023-04-06T10:14:54;100409.50;;;14.23;49.48
49541;BME280;35432;43.566;1.398;2023-04-06T10:17:20;100413.63;;;14.40;49.43
49541;BME280;35432;43.566;1.398;2023-04-06T10:20:06;100415.19;;;14.52;49.25
49541;BME280;35432;43.566;1.398;2023-04-06T10:22:53;100422.84;;;14.67;48.37
49541;BME280;35432;43.566;1.398;2023-04-06T10:25:31;100425.09;;;14.90;47.72
49541;BME280;35432;43.566;1.398;2023-04-06T10:28:05;100417.72;;;15.05;47.33
49541;BME280;35432;43.566;1.398;2023-04-06T10:30:32;100419.03;;;15.29;46.88
49541;BME280;35432;43.566;1.398;2023-04-06T10:32:58;100414.00;;;15.56;46.67
49541;BME280;35432;43.566;1.398;2023-04-06T10:35:23;100412.47;;;15.85;46.26
49541;BME280;35432;43.566;1.398;2023-04-06T10:37:50;100400.25;;;16.16;45.80
49541;BME280;35432;43.566;1.398;2023-04-06T10:40:25;100398.78;;;16.39;45.32
49541;BME280;35432;43.566;1.398;2023-04-06T10:42:53;100395.41;;;16.67;44.81
49541;BME280;35432;43.566;1.398;2023-04-06T10:45:23;100400.22;;;16.85;43.88
49541;BME280;35432;43.566;1.398;2023-04-06T10:47:52;100395.44;;;16.97;44.25
49541;BME280;35432;43.566;1.398;2023-04-06T10:50:18;100382.47;;;17.17;43.29
49541;BME280;35432;43.566;1.398;2023-04-06T10:52:45;100383.75;;;17.34;42.02
49541;BME280;35432;43.566;1.398;2023-04-06T10:55:12;100379.03;;;17.44;42.02
49541;BME280;35432;43.566;1.398;2023-04-06T10:57:38;100377.78;;;17.56;41.57
49541;BME280;35432;43.566;1.398;2023-04-06T11:00:05;100380.03;;;17.68;41.46
49541;BME280;35432;43.566;1.398;2023-04-06T11:02:30;100382.00;;;17.90;40.74
49541;BME280;35432;43.566;1.398;2023-04-06T11:04:57;100371.72;;;18.07;40.78
49541;BME280;35432;43.566;1.398;2023-04-06T11:07:27;100368.59;;;18.20;40.07
49541;BME280;35432;43.566;1.398;2023-04-06T11:09:54;100360.09;;;18.35;39.82
49541;BME280;35432;43.566;1.398;2023-04-06T11:12:24;100365.72;;;18.53;39.59
49541;BME280;35432;43.566;1.398;2023-04-06T11:14:58;100361.97;;;18.59;38.59
49541;BME280;35432;43.566;1.398;2023-04-06T11:17:30;100362.44;;;18.70;38.51
49541;BME280;35432;43.566;1.398;2023-04-06T11:19:57;100362.06;;;18.79;38.37
49541;BME280;35432;43.566;1.398;2023-04-06T11:22:24;100358.94;;;18.93;37.88
49541;BME280;35432;43.566;1.398;2023-04-06T11:24:49;100354.72;;;19.12;37.85
49541;BME280;35432;43.566;1.398;2023-04-06T11:27:15;100341.88;;;19.21;37.98
49541;BME280;35432;43.566;1.398;2023-04-06T11:29:41;100344.06;;;19.34;37.10
49541;BME280;35432;43.566;1.398;2023-04-06T11:32:07;100336.69;;;19.41;36.92
49541;BME280;35432;43.566;1.398;2023-04-06T11:34:39;100344.53;;;19.45;35.72
49541;BME280;35432;43.566;1.398;2023-04-06T11:37:11;100336.06;;;19.56;34.46
49541;BME280;35432;43.566;1.398;2023-04-06T11:39:50;100319.91;;;19.59;34.96
49541;BME280;35432;43.566;1.398;2023-04-06T11:42:23;100322.50;;;19.61;33.93
49541;BME280;35432;43.566;1.398;2023-04-06T11:44:54;100316.81;;;19.70;33.62
49541;BME280;35432;43.566;1.398;2023-04-06T11:47:20;100319.03;;;19.81;33.80
49541;BME280;35432;43.566;1.398;2023-04-06T11:49:52;100321.28;;;19.92;33.88
49541;BME280;35432;43.566;1.398;2023-04-06T11:52:18;100310.06;;;20.04;33.87
49541;BME280;35432;43.566;1.398;2023-04-06T11:54:44;100316.50;;;20.21;33.57
49541;BME280;35432;43.566;1.398;2023-04-06T11:57:10;100314.47;;;20.26;33.27
49541;BME280;35432;43.566;1.398;2023-04-06T11:59:36;100308.00;;;20.32;32.86
49541;BME280;35432;43.566;1.398;2023-04-06T12:02:02;100313.41;;;20.30;32.21
49541;BME280;35432;43.566;1.398;2023-04-06T12:04:28;100315.69;;;20.40;31.89
49541;BME280;35432;43.566;1.398;2023-04-06T12:06:53;100308.91;;;20.51;31.94
49541;BME280;35432;43.566;1.398;2023-04-06T12:09:19;100304.88;;;20.62;30.34
49541;BME280;35432;43.566;1.398;2023-04-06T12:11:45;100305.31;;;20.72;30.11
49541;BME280;35432;43.566;1.398;2023-04-06T12:14:11;100300.31;;;20.85;28.98
49541;BME280;35432;43.566;1.398;2023-04-06T12:16:36;100301.03;;;20.88;28.44
49541;BME280;35432;43.566;1.398;2023-04-06T12:19:03;100301.03;;;20.88;28.18
49541;BME280;35432;43.566;1.398;2023-04-06T12:21:30;100295.53;;;20.91;27.77
49541;BME280;35432;43.566;1.398;2023-04-06T12:23:58;100296.97;;;20.99;27.44
49541;BME280;35432;43.566;1.398;2023-04-06T12:26:24;100288.81;;;21.02;28.57
49541;BME280;35432;43.566;1.398;2023-04-06T12:28:50;100291.19;;;21.08;28.24
49541;BME280;35432;43.566;1.398;2023-04-06T12:31:20;100294.53;;;21.13;28.28
49541;BME280;35432;43.566;1.398;2023-04-06T12:33:47;100300.38;;;21.21;27.34
49541;BME280;35432;43.566;1.398;2023-04-06T12:36:14;100293.78;;;21.29;26.46
49541;BME280;35432;43.566;1.398;2023-04-06T12:38:41;100292.91;;;21.28;26.45
49541;BME280;35432;43.566;1.398;2023-04-06T12:41:07;100287.41;;;21.31;26.92
49541;BME280;35432;43.566;1.398;2023-04-06T12:43:33;100282.84;;;21.33;26.99
49541;BME280;35432;43.566;1.398;2023-04-06T12:45:58;100290.34;;;21.44;26.87
49541;BME280;35432;43.566;1.398;2023-04-06T12:48:24;100291.72;;;21.53;26.87
49541;BME280;35432;43.566;1.398;2023-04-06T12:51:08;100281.56;;;21.60;26.12
49541;BME280;35432;43.566;1.398;2023-04-06T12:53:34;100284.28;;;21.77;26.46
49541;BME280;35432;43.566;1.398;2023-04-06T12:56:01;100276.72;;;21.86;25.35